Decoded Metar for SBMO (MACEIO in BRAZIL) (IATA:MCZ) | Meteo·Mobile Aviation Weather
aviador You're here:

SBMO Decoded Metar

MACEIO in BRAZIL
Report Time2019-03-21 16:00:00
UTC Time2019-03-21 16:28:58
Flight Rules vfr VFR
Wind140° at 06 kt
W.Decomp.*RWY 12: 4.5 kt HW 4.0 kt RCW
W.Rank140° ranks 6
Current wind is below 140° avg. (9.1)
Visibility9999 m
Phenomena:N/A
Clouds:Scattered 033 Hf
Expected CloudBase > 5,600 ft AGL from Temp-Dew spread
CeilingNone
Temp35°C (ISA +21)
Dew Point21°C (44% RH)
Heat Index38.5°C
QNH1009 hPa
Density Alt3,192 ft
Elevation377 ft
Report Wrong Elevation
Raw Report
METAR SBMO 211600Z 14006KT 9999 SCT033 35/21 Q1009=

Extra information for SBMO:More info

Metar Taf Metar & Taf Last 4 Metars F.Rules Stats Wind Profile Meteogram Temp Stats Airport Information Weather charts Add Link Nearby VenuesMetar ALERT Operation Metar Decoded Social comments